sensor_id;sensor_type;location;lat;lon;timestamp;P1;durP1;ratioP1;P2;durP2;ratioP2
27889;SDS011;15238;49.082;9.102;2023-03-04T00:01:34;33.17;;;16.70;;
27889;SDS011;15238;49.082;9.102;2023-03-04T00:03:34;31.98;;;17.35;;
27889;SDS011;15238;49.082;9.102;2023-03-04T00:05:36;37.10;;;17.25;;
27889;SDS011;15238;49.082;9.102;2023-03-04T00:07:37;37.35;;;18.95;;
27889;SDS011;15238;49.082;9.102;2023-03-04T00:09:37;40.20;;;18.05;;
27889;SDS011;15238;49.082;9.102;2023-03-04T00:11:38;40.70;;;16.50;;
27889;SDS011;15238;49.082;9.102;2023-03-04T00:13:38;36.92;;;18.25;;
27889;SDS011;15238;49.082;9.102;2023-03-04T00:15:39;35.70;;;17.63;;
27889;SDS011;15238;49.082;9.102;2023-03-04T00:17:39;31.65;;;17.50;;
27889;SDS011;15238;49.082;9.102;2023-03-04T00:19:40;35.10;;;17.23;;
27889;SDS011;15238;49.082;9.102;2023-03-04T00:21:40;34.17;;;16.73;;
27889;SDS011;15238;49.082;9.102;2023-03-04T00:23:41;33.08;;;17.33;;
27889;SDS011;15238;49.082;9.102;2023-03-04T00:25:42;34.75;;;16.80;;
27889;SDS011;15238;49.082;9.102;2023-03-04T00:27:43;36.97;;;17.88;;
27889;SDS011;15238;49.082;9.102;2023-03-04T00:29:43;32.47;;;15.35;;
27889;SDS011;15238;49.082;9.102;2023-03-04T00:31:44;34.80;;;16.80;;
27889;SDS011;15238;49.082;9.102;2023-03-04T00:33:44;34.50;;;16.88;;
27889;SDS011;15238;49.082;9.102;2023-03-04T00:35:45;36.20;;;16.20;;
27889;SDS011;15238;49.082;9.102;2023-03-04T00:37:45;28.95;;;15.10;;
27889;SDS011;15238;49.082;9.102;2023-03-04T00:39:46;34.13;;;16.77;;
27889;SDS011;15238;49.082;9.102;2023-03-04T00:41:46;33.80;;;15.23;;
27889;SDS011;15238;49.082;9.102;2023-03-04T00:43:47;36.90;;;16.83;;
27889;SDS011;15238;49.082;9.102;2023-03-04T00:45:47;31.75;;;15.90;;
27889;SDS011;15238;49.082;9.102;2023-03-04T00:47:48;32.72;;;15.93;;
27889;SDS011;15238;49.082;9.102;2023-03-04T00:49:48;29.85;;;14.43;;
27889;SDS011;15238;49.082;9.102;2023-03-04T00:51:49;34.28;;;16.58;;
27889;SDS011;15238;49.082;9.102;2023-03-04T00:53:49;30.52;;;16.45;;
27889;SDS011;15238;49.082;9.102;2023-03-04T00:55:51;30.77;;;15.65;;
27889;SDS011;15238;49.082;9.102;2023-03-04T00:57:51;27.63;;;14.57;;
27889;SDS011;15238;49.082;9.102;2023-03-04T00:59:52;31.10;;;14.98;;
27889;SDS011;15238;49.082;9.102;2023-03-04T01:01:52;31.67;;;14.70;;
27889;SDS011;15238;49.082;9.102;2023-03-04T01:03:53;29.30;;;14.88;;
27889;SDS011;15238;49.082;9.102;2023-03-04T01:05:54;27.92;;;13.93;;
27889;SDS011;15238;49.082;9.102;2023-03-04T01:07:54;31.83;;;14.82;;
27889;SDS011;15238;49.082;9.102;2023-03-04T01:09:54;33.53;;;16.23;;
27889;SDS011;15238;49.082;9.102;2023-03-04T01:11:55;31.55;;;15.10;;
27889;SDS011;15238;49.082;9.102;2023-03-04T01:13:56;32.65;;;15.05;;
27889;SDS011;15238;49.082;9.102;2023-03-04T01:15:57;27.02;;;13.35;;
27889;SDS011;15238;49.082;9.102;2023-03-04T01:17:57;31.70;;;15.27;;
27889;SDS011;15238;49.082;9.102;2023-03-04T01:19:58;25.45;;;13.50;;
27889;SDS011;15238;49.082;9.102;2023-03-04T01:21:58;31.58;;;14.02;;
27889;SDS011;15238;49.082;9.102;2023-03-04T01:23:59;29.20;;;13.80;;
27889;SDS011;15238;49.082;9.102;2023-03-04T01:26:00;32.38;;;14.95;;
27889;SDS011;15238;49.082;9.102;2023-03-04T01:28:00;34.20;;;16.15;;
27889;SDS011;15238;49.082;9.102;2023-03-04T01:30:01;28.80;;;14.43;;
27889;SDS011;15238;49.082;9.102;2023-03-04T01:32:02;30.10;;;14.63;;
27889;SDS011;15238;49.082;9.102;2023-03-04T01:34:03;30.77;;;14.80;;
27889;SDS011;15238;49.082;9.102;2023-03-04T01:36:04;31.20;;;15.88;;
27889;SDS011;15238;49.082;9.102;2023-03-04T01:38:04;27.23;;;15.23;;
27889;SDS011;15238;49.082;9.102;2023-03-04T01:40:05;31.52;;;14.88;;
27889;SDS011;15238;49.082;9.102;2023-03-04T01:42:11;27.95;;;14.18;;
27889;SDS011;15238;49.082;9.102;2023-03-04T01:44:18;33.22;;;13.90;;
27889;SDS011;15238;49.082;9.102;2023-03-04T01:46:19;30.30;;;14.23;;
27889;SDS011;15238;49.082;9.102;2023-03-04T01:48:24;28.40;;;13.57;;
27889;SDS011;15238;49.082;9.102;2023-03-04T01:50:29;29.70;;;13.55;;
27889;SDS011;15238;49.082;9.102;2023-03-04T01:52:32;27.75;;;14.10;;
27889;SDS011;15238;49.082;9.102;2023-03-04T01:54:33;28.55;;;13.52;;
27889;SDS011;15238;49.082;9.102;2023-03-04T01:56:35;30.55;;;14.07;;
27889;SDS011;15238;49.082;9.102;2023-03-04T01:58:37;30.27;;;14.73;;
27889;SDS011;15238;49.082;9.102;2023-03-04T02:00:37;26.15;;;13.30;;
27889;SDS011;15238;49.082;9.102;2023-03-04T02:02:38;29.88;;;15.15;;
27889;SDS011;15238;49.082;9.102;2023-03-04T02:04:39;27.40;;;13.65;;
27889;SDS011;15238;49.082;9.102;2023-03-04T02:06:41;27.27;;;13.60;;
27889;SDS011;15238;49.082;9.102;2023-03-04T02:08:43;28.60;;;14.23;;
27889;SDS011;15238;49.082;9.102;2023-03-04T02:10:43;29.00;;;13.93;;
27889;SDS011;15238;49.082;9.102;2023-03-04T02:12:45;30.10;;;14.30;;
27889;SDS011;15238;49.082;9.102;2023-03-04T02:14:46;30.63;;;14.65;;
27889;SDS011;15238;49.082;9.102;2023-03-04T02:16:46;27.55;;;13.75;;
27889;SDS011;15238;49.082;9.102;2023-03-04T02:18:48;33.63;;;16.65;;
27889;SDS011;15238;49.082;9.102;2023-03-04T02:23:31;28.20;;;13.77;;
27889;SDS011;15238;49.082;9.102;2023-03-04T02:25:44;26.95;;;12.40;;
27889;SDS011;15238;49.082;9.102;2023-03-04T02:27:49;28.77;;;14.63;;
27889;SDS011;15238;49.082;9.102;2023-03-04T02:29:49;25.45;;;13.55;;
27889;SDS011;15238;49.082;9.102;2023-03-04T02:31:50;24.35;;;13.05;;
27889;SDS011;15238;49.082;9.102;2023-03-04T02:33:53;29.27;;;13.02;;
27889;SDS011;15238;49.082;9.102;2023-03-04T02:35:56;26.67;;;13.20;;
27889;SDS011;15238;49.082;9.102;2023-03-04T02:37:56;29.60;;;14.95;;
27889;SDS011;15238;49.082;9.102;2023-03-04T02:39:57;24.15;;;13.18;;
27889;SDS011;15238;49.082;9.102;2023-03-04T02:41:58;24.05;;;13.13;;
27889;SDS011;15238;49.082;9.102;2023-03-04T02:44:00;25.60;;;13.55;;
27889;SDS011;15238;49.082;9.102;2023-03-04T02:46:00;30.38;;;13.77;;
27889;SDS011;15238;49.082;9.102;2023-03-04T02:48:01;28.17;;;13.95;;
27889;SDS011;15238;49.082;9.102;2023-03-04T02:50:02;24.15;;;12.73;;
27889;SDS011;15238;49.082;9.102;2023-03-04T02:52:07;26.45;;;12.93;;
27889;SDS011;15238;49.082;9.102;2023-03-04T02:54:18;28.13;;;14.10;;
27889;SDS011;15238;49.082;9.102;2023-03-04T02:56:20;28.70;;;13.65;;
27889;SDS011;15238;49.082;9.102;2023-03-04T02:58:21;26.58;;;13.25;;
27889;SDS011;15238;49.082;9.102;2023-03-04T03:00:22;30.98;;;13.18;;
27889;SDS011;15238;49.082;9.102;2023-03-04T03:02:22;30.23;;;13.77;;
27889;SDS011;15238;49.082;9.102;2023-03-04T03:04:23;25.75;;;11.98;;
27889;SDS011;15238;49.082;9.102;2023-03-04T03:06:25;30.85;;;12.52;;
27889;SDS011;15238;49.082;9.102;2023-03-04T03:08:25;28.55;;;12.90;;
27889;SDS011;15238;49.082;9.102;2023-03-04T03:10:26;24.52;;;12.32;;
27889;SDS011;15238;49.082;9.102;2023-03-04T03:12:27;28.60;;;13.23;;
27889;SDS011;15238;49.082;9.102;2023-03-04T03:14:27;25.48;;;12.45;;
27889;SDS011;15238;49.082;9.102;2023-03-04T03:16:28;24.88;;;12.85;;
27889;SDS011;15238;49.082;9.102;2023-03-04T03:18:28;29.92;;;13.05;;
27889;SDS011;15238;49.082;9.102;2023-03-04T03:20:29;29.55;;;13.65;;
27889;SDS011;15238;49.082;9.102;2023-03-04T03:22:29;26.00;;;12.68;;
27889;SDS011;15238;49.082;9.102;2023-03-04T03:24:30;26.17;;;12.90;;
27889;SDS011;15238;49.082;9.102;2023-03-04T03:26:30;26.08;;;12.60;;
27889;SDS011;15238;49.082;9.102;2023-03-04T03:28:31;28.95;;;13.75;;
27889;SDS011;15238;49.082;9.102;2023-03-04T03:30:32;25.17;;;12.60;;
27889;SDS011;15238;49.082;9.102;2023-03-04T03:32:32;26.95;;;12.43;;
27889;SDS011;15238;49.082;9.102;2023-03-04T03:34:33;28.48;;;12.80;;
27889;SDS011;15238;49.082;9.102;2023-03-04T03:36:33;28.30;;;13.90;;
27889;SDS011;15238;49.082;9.102;2023-03-04T03:38:34;22.90;;;12.05;;
27889;SDS011;15238;49.082;9.102;2023-03-04T03:40:35;29.35;;;14.10;;
27889;SDS011;15238;49.082;9.102;2023-03-04T03:42:36;25.08;;;12.82;;
27889;SDS011;15238;49.082;9.102;2023-03-04T03:44:36;25.83;;;12.90;;
27889;SDS011;15238;49.082;9.102;2023-03-04T03:46:37;25.45;;;13.00;;
27889;SDS011;15238;49.082;9.102;2023-03-04T03:48:37;23.77;;;12.50;;
27889;SDS011;15238;49.082;9.102;2023-03-04T03:50:38;27.50;;;12.98;;
27889;SDS011;15238;49.082;9.102;2023-03-04T03:52:38;28.08;;;12.43;;
27889;SDS011;15238;49.082;9.102;2023-03-04T03:54:39;25.73;;;13.32;;
27889;SDS011;15238;49.082;9.102;2023-03-04T03:56:40;30.60;;;14.20;;
27889;SDS011;15238;49.082;9.102;2023-03-04T03:58:40;28.75;;;14.02;;
27889;SDS011;15238;49.082;9.102;2023-03-04T04:00:41;26.48;;;13.10;;
27889;SDS011;15238;49.082;9.102;2023-03-04T04:02:41;26.55;;;13.73;;
27889;SDS011;15238;49.082;9.102;2023-03-04T04:04:42;25.88;;;13.10;;
27889;SDS011;15238;49.082;9.102;2023-03-04T04:06:43;32.72;;;13.95;;
27889;SDS011;15238;49.082;9.102;2023-03-04T04:08:43;27.70;;;14.60;;
27889;SDS011;15238;49.082;9.102;2023-03-04T04:10:44;27.52;;;13.32;;
27889;SDS011;15238;49.082;9.102;2023-03-04T04:12:44;30.75;;;14.25;;
27889;SDS011;15238;49.082;9.102;2023-03-04T04:14:45;32.00;;;14.13;;
27889;SDS011;15238;49.082;9.102;2023-03-04T04:16:45;28.75;;;13.38;;
27889;SDS011;15238;49.082;9.102;2023-03-04T04:18:46;25.67;;;13.45;;
27889;SDS011;15238;49.082;9.102;2023-03-04T04:20:46;33.80;;;15.05;;
27889;SDS011;15238;49.082;9.102;2023-03-04T04:22:47;26.15;;;13.35;;
27889;SDS011;15238;49.082;9.102;2023-03-04T04:24:47;30.60;;;14.75;;
27889;SDS011;15238;49.082;9.102;2023-03-04T04:26:48;28.67;;;14.23;;
27889;SDS011;15238;49.082;9.102;2023-03-04T04:28:48;33.75;;;15.02;;
27889;SDS011;15238;49.082;9.102;2023-03-04T04:30:49;32.88;;;15.85;;
27889;SDS011;15238;49.082;9.102;2023-03-04T04:32:50;31.77;;;14.63;;
27889;SDS011;15238;49.082;9.102;2023-03-04T04:34:50;34.58;;;15.45;;
27889;SDS011;15238;49.082;9.102;2023-03-04T04:36:51;34.13;;;15.93;;
27889;SDS011;15238;49.082;9.102;2023-03-04T04:38:51;38.25;;;16.48;;
27889;SDS011;15238;49.082;9.102;2023-03-04T04:40:52;31.67;;;14.98;;
27889;SDS011;15238;49.082;9.102;2023-03-04T04:42:56;35.50;;;15.57;;
27889;SDS011;15238;49.082;9.102;2023-03-04T04:44:57;36.92;;;16.02;;
27889;SDS011;15238;49.082;9.102;2023-03-04T04:46:57;34.50;;;15.80;;
27889;SDS011;15238;49.082;9.102;2023-03-04T04:48:58;38.30;;;18.00;;
27889;SDS011;15238;49.082;9.102;2023-03-04T04:50:58;34.42;;;15.52;;
27889;SDS011;15238;49.082;9.102;2023-03-04T04:52:59;36.95;;;16.27;;
27889;SDS011;15238;49.082;9.102;2023-03-04T04:54:59;32.25;;;14.95;;
27889;SDS011;15238;49.082;9.102;2023-03-04T04:57:00;35.00;;;14.90;;
27889;SDS011;15238;49.082;9.102;2023-03-04T04:59:02;32.47;;;16.08;;
27889;SDS011;15238;49.082;9.102;2023-03-04T05:01:04;37.40;;;16.17;;
27889;SDS011;15238;49.082;9.102;2023-03-04T05:03:05;29.38;;;14.32;;
27889;SDS011;15238;49.082;9.102;2023-03-04T05:05:06;34.45;;;15.73;;
27889;SDS011;15238;49.082;9.102;2023-03-04T05:07:07;31.02;;;14.70;;
27889;SDS011;15238;49.082;9.102;2023-03-04T05:09:07;31.75;;;14.90;;
27889;SDS011;15238;49.082;9.102;2023-03-04T05:11:08;31.55;;;14.88;;
27889;SDS011;15238;49.082;9.102;2023-03-04T05:13:08;31.67;;;15.88;;
27889;SDS011;15238;49.082;9.102;2023-03-04T05:15:09;34.25;;;14.85;;
27889;SDS011;15238;49.082;9.102;2023-03-04T05:17:10;32.45;;;15.02;;
27889;SDS011;15238;49.082;9.102;2023-03-04T05:19:11;36.42;;;15.80;;
27889;SDS011;15238;49.082;9.102;2023-03-04T05:21:11;33.47;;;14.95;;
27889;SDS011;15238;49.082;9.102;2023-03-04T05:23:12;32.30;;;15.30;;
27889;SDS011;15238;49.082;9.102;2023-03-04T05:25:13;35.95;;;16.02;;
27889;SDS011;15238;49.082;9.102;2023-03-04T05:27:13;37.92;;;16.60;;
27889;SDS011;15238;49.082;9.102;2023-03-04T05:29:14;38.42;;;16.40;;
27889;SDS011;15238;49.082;9.102;2023-03-04T05:31:14;41.40;;;15.38;;
27889;SDS011;15238;49.082;9.102;2023-03-04T05:33:16;36.65;;;15.85;;
27889;SDS011;15238;49.082;9.102;2023-03-04T05:35:18;31.50;;;15.15;;
27889;SDS011;15238;49.082;9.102;2023-03-04T05:37:18;30.80;;;15.00;;
27889;SDS011;15238;49.082;9.102;2023-03-04T05:39:19;38.00;;;15.02;;
27889;SDS011;15238;49.082;9.102;2023-03-04T05:41:19;34.28;;;15.63;;
27889;SDS011;15238;49.082;9.102;2023-03-04T05:43:21;38.33;;;15.55;;
27889;SDS011;15238;49.082;9.102;2023-03-04T05:45:22;31.90;;;15.07;;
27889;SDS011;15238;49.082;9.102;2023-03-04T05:47:23;31.48;;;15.00;;
27889;SDS011;15238;49.082;9.102;2023-03-04T05:49:24;32.13;;;15.98;;
27889;SDS011;15238;49.082;9.102;2023-03-04T05:51:24;33.80;;;16.27;;
27889;SDS011;15238;49.082;9.102;2023-03-04T05:53:25;31.55;;;15.02;;
27889;SDS011;15238;49.082;9.102;2023-03-04T05:55:26;32.90;;;15.63;;
27889;SDS011;15238;49.082;9.102;2023-03-04T05:57:28;33.42;;;14.88;;
27889;SDS011;15238;49.082;9.102;2023-03-04T05:59:29;40.40;;;15.90;;
27889;SDS011;15238;49.082;9.102;2023-03-04T06:01:29;33.55;;;15.10;;
27889;SDS011;15238;49.082;9.102;2023-03-04T06:03:30;37.25;;;16.48;;
27889;SDS011;15238;49.082;9.102;2023-03-04T06:05:31;33.40;;;15.88;;
27889;SDS011;15238;49.082;9.102;2023-03-04T06:07:32;29.73;;;15.75;;
27889;SDS011;15238;49.082;9.102;2023-03-04T06:09:33;32.70;;;16.30;;
27889;SDS011;15238;49.082;9.102;2023-03-04T06:11:33;31.58;;;15.95;;
27889;SDS011;15238;49.082;9.102;2023-03-04T06:13:34;30.05;;;15.43;;
27889;SDS011;15238;49.082;9.102;2023-03-04T06:15:35;31.63;;;15.00;;
27889;SDS011;15238;49.082;9.102;2023-03-04T06:17:37;35.15;;;16.67;;
27889;SDS011;15238;49.082;9.102;2023-03-04T06:19:39;32.55;;;15.20;;
27889;SDS011;15238;49.082;9.102;2023-03-04T06:21:43;31.58;;;14.68;;
27889;SDS011;15238;49.082;9.102;2023-03-04T06:23:43;37.50;;;15.45;;
27889;SDS011;15238;49.082;9.102;2023-03-04T06:25:44;28.55;;;14.82;;
27889;SDS011;15238;49.082;9.102;2023-03-04T06:27:45;31.95;;;15.32;;
27889;SDS011;15238;49.082;9.102;2023-03-04T06:29:45;37.33;;;16.80;;
27889;SDS011;15238;49.082;9.102;2023-03-04T06:31:45;35.72;;;16.30;;
27889;SDS011;15238;49.082;9.102;2023-03-04T06:33:46;34.83;;;17.38;;
27889;SDS011;15238;49.082;9.102;2023-03-04T06:35:47;36.15;;;17.48;;
27889;SDS011;15238;49.082;9.102;2023-03-04T06:37:47;39.15;;;17.60;;
27889;SDS011;15238;49.082;9.102;2023-03-04T06:39:48;32.28;;;16.23;;
27889;SDS011;15238;49.082;9.102;2023-03-04T06:41:49;30.17;;;15.27;;
27889;SDS011;15238;49.082;9.102;2023-03-04T06:43:52;39.53;;;17.83;;
27889;SDS011;15238;49.082;9.102;2023-03-04T06:45:53;35.72;;;17.48;;
27889;SDS011;15238;49.082;9.102;2023-03-04T06:47:53;38.83;;;18.48;;
27889;SDS011;15238;49.082;9.102;2023-03-04T06:49:54;35.20;;;17.02;;
27889;SDS011;15238;49.082;9.102;2023-03-04T06:51:55;32.60;;;15.95;;
27889;SDS011;15238;49.082;9.102;2023-03-04T06:53:55;35.95;;;17.88;;
27889;SDS011;15238;49.082;9.102;2023-03-04T06:55:56;36.63;;;17.73;;
27889;SDS011;15238;49.082;9.102;2023-03-04T06:57:56;34.95;;;16.63;;
27889;SDS011;15238;49.082;9.102;2023-03-04T06:59:57;40.40;;;18.02;;
27889;SDS011;15238;49.082;9.102;2023-03-04T07:01:58;45.95;;;19.70;;
27889;SDS011;15238;49.082;9.102;2023-03-04T07:03:58;36.75;;;18.15;;
27889;SDS011;15238;49.082;9.102;2023-03-04T07:05:59;40.35;;;17.02;;
27889;SDS011;15238;49.082;9.102;2023-03-04T07:08:00;46.63;;;22.23;;
27889;SDS011;15238;49.082;9.102;2023-03-04T07:10:00;36.13;;;17.15;;
27889;SDS011;15238;49.082;9.102;2023-03-04T07:12:01;37.33;;;18.05;;
27889;SDS011;15238;49.082;9.102;2023-03-04T07:14:02;37.28;;;17.17;;
27889;SDS011;15238;49.082;9.102;2023-03-04T07:16:03;39.35;;;17.83;;
27889;SDS011;15238;49.082;9.102;2023-03-04T07:18:07;37.20;;;17.15;;
27889;SDS011;15238;49.082;9.102;2023-03-04T07:20:08;32.28;;;16.27;;
27889;SDS011;15238;49.082;9.102;2023-03-04T07:22:09;33.70;;;17.02;;
27889;SDS011;15238;49.082;9.102;2023-03-04T07:24:10;37.30;;;18.42;;
27889;SDS011;15238;49.082;9.102;2023-03-04T07:26:10;59.75;;;24.00;;
27889;SDS011;15238;49.082;9.102;2023-03-04T07:28:11;36.35;;;17.80;;
27889;SDS011;15238;49.082;9.102;2023-03-04T07:30:12;42.20;;;19.20;;
27889;SDS011;15238;49.082;9.102;2023-03-04T07:32:12;34.28;;;17.65;;
27889;SDS011;15238;49.082;9.102;2023-03-04T07:34:13;39.10;;;20.10;;
27889;SDS011;15238;49.082;9.102;2023-03-04T07:36:14;40.75;;;20.00;;
27889;SDS011;15238;49.082;9.102;2023-03-04T07:38:15;39.72;;;19.83;;
27889;SDS011;15238;49.082;9.102;2023-03-04T07:40:15;43.13;;;19.33;;
27889;SDS011;15238;49.082;9.102;2023-03-04T07:42:16;43.33;;;18.10;;
27889;SDS011;15238;49.082;9.102;2023-03-04T07:44:16;36.50;;;17.27;;
27889;SDS011;15238;49.082;9.102;2023-03-04T07:46:17;37.55;;;18.55;;
27889;SDS011;15238;49.082;9.102;2023-03-04T07:48:18;35.67;;;16.92;;
27889;SDS011;15238;49.082;9.102;2023-03-04T07:50:18;31.83;;;15.93;;
27889;SDS011;15238;49.082;9.102;2023-03-04T07:52:20;39.45;;;17.30;;
27889;SDS011;15238;49.082;9.102;2023-03-04T07:54:20;39.95;;;19.83;;
27889;SDS011;15238;49.082;9.102;2023-03-04T07:56:22;40.38;;;17.45;;
27889;SDS011;15238;49.082;9.102;2023-03-04T07:58:24;35.40;;;17.02;;
27889;SDS011;15238;49.082;9.102;2023-03-04T08:00:25;37.28;;;16.73;;
27889;SDS011;15238;49.082;9.102;2023-03-04T08:02:25;44.47;;;18.25;;
27889;SDS011;15238;49.082;9.102;2023-03-04T08:04:26;57.75;;;21.63;;
27889;SDS011;15238;49.082;9.102;2023-03-04T08:06:26;39.42;;;18.58;;
27889;SDS011;15238;49.082;9.102;2023-03-04T08:08:27;39.58;;;18.67;;
27889;SDS011;15238;49.082;9.102;2023-03-04T08:10:28;38.40;;;18.27;;
27889;SDS011;15238;49.082;9.102;2023-03-04T08:12:28;46.42;;;21.35;;
27889;SDS011;15238;49.082;9.102;2023-03-04T08:14:29;35.03;;;17.95;;
27889;SDS011;15238;49.082;9.102;2023-03-04T08:16:29;43.45;;;18.17;;
27889;SDS011;15238;49.082;9.102;2023-03-04T08:18:30;39.17;;;17.95;;
27889;SDS011;15238;49.082;9.102;2023-03-04T08:20:30;42.47;;;16.90;;
27889;SDS011;15238;49.082;9.102;2023-03-04T08:22:31;52.20;;;17.00;;
27889;SDS011;15238;49.082;9.102;2023-03-04T08:24:32;40.78;;;19.35;;
27889;SDS011;15238;49.082;9.102;2023-03-04T08:26:34;33.60;;;16.02;;
27889;SDS011;15238;49.082;9.102;2023-03-04T08:28:42;37.03;;;17.67;;
27889;SDS011;15238;49.082;9.102;2023-03-04T08:30:44;32.60;;;16.50;;
27889;SDS011;15238;49.082;9.102;2023-03-04T08:32:52;31.95;;;15.27;;
27889;SDS011;15238;49.082;9.102;2023-03-04T08:34:52;40.70;;;20.10;;
27889;SDS011;15238;49.082;9.102;2023-03-04T08:36:55;36.50;;;19.05;;
27889;SDS011;15238;49.082;9.102;2023-03-04T08:38:55;41.17;;;20.58;;
27889;SDS011;15238;49.082;9.102;2023-03-04T08:40:56;38.45;;;18.00;;
27889;SDS011;15238;49.082;9.102;2023-03-04T08:42:57;35.38;;;17.25;;
27889;SDS011;15238;49.082;9.102;2023-03-04T08:44:58;42.70;;;18.83;;
27889;SDS011;15238;49.082;9.102;2023-03-04T08:46:58;33.15;;;17.45;;
27889;SDS011;15238;49.082;9.102;2023-03-04T08:48:59;37.90;;;19.38;;
27889;SDS011;15238;49.082;9.102;2023-03-04T08:50:59;36.05;;;18.08;;
27889;SDS011;15238;49.082;9.102;2023-03-04T08:53:00;40.05;;;21.77;;
27889;SDS011;15238;49.082;9.102;2023-03-04T08:55:00;39.63;;;21.02;;
27889;SDS011;15238;49.082;9.102;2023-03-04T08:57:01;34.00;;;17.77;;
27889;SDS011;15238;49.082;9.102;2023-03-04T08:59:03;30.63;;;15.95;;
27889;SDS011;15238;49.082;9.102;2023-03-04T09:01:04;32.33;;;15.40;;
27889;SDS011;15238;49.082;9.102;2023-03-04T09:03:09;30.73;;;14.82;;
27889;SDS011;15238;49.082;9.102;2023-03-04T09:05:13;28.55;;;16.77;;
27889;SDS011;15238;49.082;9.102;2023-03-04T09:07:13;32.83;;;15.88;;
27889;SDS011;15238;49.082;9.102;2023-03-04T09:09:14;27.63;;;15.38;;
27889;SDS011;15238;49.082;9.102;2023-03-04T09:11:14;35.92;;;19.13;;
27889;SDS011;15238;49.082;9.102;2023-03-04T09:13:15;26.17;;;14.32;;
27889;SDS011;15238;49.082;9.102;2023-03-04T09:15:15;28.13;;;14.02;;
27889;SDS011;15238;49.082;9.102;2023-03-04T09:17:16;27.52;;;14.05;;
27889;SDS011;15238;49.082;9.102;2023-03-04T09:19:17;31.30;;;15.95;;
27889;SDS011;15238;49.082;9.102;2023-03-04T09:21:17;31.08;;;15.45;;
27889;SDS011;15238;49.082;9.102;2023-03-04T09:23:18;25.38;;;13.27;;
27889;SDS011;15238;49.082;9.102;2023-03-04T09:25:19;23.73;;;14.13;;
27889;SDS011;15238;49.082;9.102;2023-03-04T09:27:19;26.05;;;14.02;;
27889;SDS011;15238;49.082;9.102;2023-03-04T09:29:20;33.42;;;15.65;;
27889;SDS011;15238;49.082;9.102;2023-03-04T09:31:21;28.98;;;15.38;;
27889;SDS011;15238;49.082;9.102;2023-03-04T09:33:22;26.63;;;15.05;;
27889;SDS011;15238;49.082;9.102;2023-03-04T09:35:23;26.83;;;15.07;;
27889;SDS011;15238;49.082;9.102;2023-03-04T09:37:24;31.83;;;14.98;;
27889;SDS011;15238;49.082;9.102;2023-03-04T09:39:24;24.95;;;14.07;;
27889;SDS011;15238;49.082;9.102;2023-03-04T09:41:26;26.88;;;15.32;;
27889;SDS011;15238;49.082;9.102;2023-03-04T09:43:41;26.75;;;15.60;;
27889;SDS011;15238;49.082;9.102;2023-03-04T09:45:45;24.52;;;14.68;;
27889;SDS011;15238;49.082;9.102;2023-03-04T09:47:50;28.15;;;15.63;;
27889;SDS011;15238;49.082;9.102;2023-03-04T09:49:59;31.40;;;15.77;;
27889;SDS011;15238;49.082;9.102;2023-03-04T09:56:50;25.10;;;15.15;;
27889;SDS011;15238;49.082;9.102;2023-03-04T09:59:00;32.53;;;14.73;;
27889;SDS011;15238;49.082;9.102;2023-03-04T10:01:28;28.05;;;14.90;;
27889;SDS011;15238;49.082;9.102;2023-03-04T10:03:40;29.35;;;15.93;;
27889;SDS011;15238;49.082;9.102;2023-03-04T10:05:54;27.58;;;15.15;;
27889;SDS011;15238;49.082;9.102;2023-03-04T10:10:34;32.33;;;15.52;;
27889;SDS011;15238;49.082;9.102;2023-03-04T10:12:38;28.80;;;16.38;;
27889;SDS011;15238;49.082;9.102;2023-03-04T10:14:46;30.33;;;16.75;;
27889;SDS011;15238;49.082;9.102;2023-03-04T10:16:51;29.75;;;16.90;;
27889;SDS011;15238;49.082;9.102;2023-03-04T10:21:11;33.53;;;17.45;;
27889;SDS011;15238;49.082;9.102;2023-03-04T10:23:20;29.52;;;15.10;;
27889;SDS011;15238;49.082;9.102;2023-03-04T10:25:27;36.65;;;16.55;;
27889;SDS011;15238;49.082;9.102;2023-03-04T10:27:32;30.60;;;16.08;;
27889;SDS011;15238;49.082;9.102;2023-03-04T10:29:33;27.98;;;16.55;;
27889;SDS011;15238;49.082;9.102;2023-03-04T10:31:35;30.83;;;16.55;;
27889;SDS011;15238;49.082;9.102;2023-03-04T10:33:37;31.17;;;16.58;;
27889;SDS011;15238;49.082;9.102;2023-03-04T10:35:39;42.20;;;21.52;;
27889;SDS011;15238;49.082;9.102;2023-03-04T10:37:45;35.42;;;16.85;;
27889;SDS011;15238;49.082;9.102;2023-03-04T10:39:48;33.42;;;16.48;;
27889;SDS011;15238;49.082;9.102;2023-03-04T10:41:57;28.08;;;17.00;;
27889;SDS011;15238;49.082;9.102;2023-03-04T10:44:16;32.70;;;16.63;;
27889;SDS011;15238;49.082;9.102;2023-03-04T10:46:17;37.67;;;17.48;;
27889;SDS011;15238;49.082;9.102;2023-03-04T10:48:24;34.05;;;17.90;;
27889;SDS011;15238;49.082;9.102;2023-03-04T10:50:29;32.33;;;18.52;;
27889;SDS011;15238;49.082;9.102;2023-03-04T10:54:40;38.15;;;19.13;;
27889;SDS011;15238;49.082;9.102;2023-03-04T10:57:01;36.00;;;18.15;;
27889;SDS011;15238;49.082;9.102;2023-03-04T11:01:26;37.83;;;19.20;;
27889;SDS011;15238;49.082;9.102;2023-03-04T11:03:30;30.95;;;18.52;;
27889;SDS011;15238;49.082;9.102;2023-03-04T11:05:31;36.28;;;19.10;;
27889;SDS011;15238;49.082;9.102;2023-03-04T11:07:36;33.55;;;18.88;;
27889;SDS011;15238;49.082;9.102;2023-03-04T11:09:39;30.45;;;18.25;;
27889;SDS011;15238;49.082;9.102;2023-03-04T11:11:43;33.28;;;18.05;;
27889;SDS011;15238;49.082;9.102;2023-03-04T11:13:49;32.42;;;18.65;;
27889;SDS011;15238;49.082;9.102;2023-03-04T11:15:53;33.15;;;18.40;;
27889;SDS011;15238;49.082;9.102;2023-03-04T11:17:56;30.77;;;17.20;;
27889;SDS011;15238;49.082;9.102;2023-03-04T11:20:13;35.42;;;18.15;;
27889;SDS011;15238;49.082;9.102;2023-03-04T11:22:31;36.30;;;19.27;;
27889;SDS011;15238;49.082;9.102;2023-03-04T11:24:33;39.08;;;19.33;;
27889;SDS011;15238;49.082;9.102;2023-03-04T11:26:40;34.55;;;18.98;;
27889;SDS011;15238;49.082;9.102;2023-03-04T11:31:00;35.85;;;16.98;;
27889;SDS011;15238;49.082;9.102;2023-03-04T11:35:18;31.13;;;18.10;;
27889;SDS011;15238;49.082;9.102;2023-03-04T11:37:29;35.97;;;19.73;;
27889;SDS011;15238;49.082;9.102;2023-03-04T11:39:37;36.57;;;18.63;;
27889;SDS011;15238;49.082;9.102;2023-03-04T11:41:50;36.33;;;18.65;;
27889;SDS011;15238;49.082;9.102;2023-03-04T11:48:34;34.30;;;18.08;;
27889;SDS011;15238;49.082;9.102;2023-03-04T11:50:57;35.47;;;18.15;;
27889;SDS011;15238;49.082;9.102;2023-03-04T12:07:45;29.00;;;16.45;;
27889;SDS011;15238;49.082;9.102;2023-03-04T12:12:30;28.92;;;16.30;;
27889;SDS011;15238;49.082;9.102;2023-03-04T12:15:01;35.20;;;16.85;;
27889;SDS011;15238;49.082;9.102;2023-03-04T12:19:54;32.03;;;17.20;;
27889;SDS011;15238;49.082;9.102;2023-03-04T12:22:13;35.47;;;16.60;;
27889;SDS011;15238;49.082;9.102;2023-03-04T12:29:10;31.60;;;17.38;;
27889;SDS011;15238;49.082;9.102;2023-03-04T12:35:32;29.38;;;17.13;;
27889;SDS011;15238;49.082;9.102;2023-03-04T12:37:52;31.13;;;16.73;;
27889;SDS011;15238;49.082;9.102;2023-03-04T12:40:24;27.67;;;16.20;;
27889;SDS011;15238;49.082;9.102;2023-03-04T12:42:49;28.60;;;16.05;;
27889;SDS011;15238;49.082;9.102;2023-03-04T12:47:33;37.20;;;18.20;;
27889;SDS011;15238;49.082;9.102;2023-03-04T12:56:44;47.90;;;18.10;;
27889;SDS011;15238;49.082;9.102;2023-03-04T12:58:51;46.88;;;18.17;;
27889;SDS011;15238;49.082;9.102;2023-03-04T13:05:39;28.33;;;16.77;;